sensor_id;sensor_type;location;lat;lon;timestamp;P1;durP1;ratioP1;P2;durP2;ratioP2
42018;SDS011;27703;51.980;5.848;2023-02-11T00:00:33;30.83;;;14.43;;
42018;SDS011;27703;51.980;5.848;2023-02-11T00:02:59;28.42;;;13.50;;
42018;SDS011;27703;51.980;5.848;2023-02-11T00:05:24;21.38;;;11.57;;
42018;SDS011;27703;51.980;5.848;2023-02-11T00:07:50;22.60;;;12.02;;
42018;SDS011;27703;51.980;5.848;2023-02-11T00:10:16;28.25;;;12.15;;
42018;SDS011;27703;51.980;5.848;2023-02-11T00:12:41;24.58;;;11.10;;
42018;SDS011;27703;51.980;5.848;2023-02-11T00:15:07;20.75;;;10.48;;
42018;SDS011;27703;51.980;5.848;2023-02-11T00:17:34;20.75;;;9.90;;
42018;SDS011;27703;51.980;5.848;2023-02-11T00:19:59;17.38;;;9.00;;
42018;SDS011;27703;51.980;5.848;2023-02-11T00:22:25;22.75;;;10.68;;
42018;SDS011;27703;51.980;5.848;2023-02-11T00:24:51;23.65;;;10.93;;
42018;SDS011;27703;51.980;5.848;2023-02-11T00:27:16;20.63;;;10.63;;
42018;SDS011;27703;51.980;5.848;2023-02-11T00:29:42;23.55;;;9.40;;
42018;SDS011;27703;51.980;5.848;2023-02-11T00:32:08;17.50;;;8.85;;
42018;SDS011;27703;51.980;5.848;2023-02-11T00:34:34;29.52;;;11.85;;
42018;SDS011;27703;51.980;5.848;2023-02-11T00:37:02;22.85;;;9.43;;
42018;SDS011;27703;51.980;5.848;2023-02-11T00:39:28;21.65;;;10.18;;
42018;SDS011;27703;51.980;5.848;2023-02-11T00:41:54;29.75;;;10.25;;
42018;SDS011;27703;51.980;5.848;2023-02-11T00:44:19;23.38;;;9.65;;
42018;SDS011;27703;51.980;5.848;2023-02-11T00:46:45;24.17;;;11.40;;
42018;SDS011;27703;51.980;5.848;2023-02-11T00:49:11;20.90;;;8.93;;
42018;SDS011;27703;51.980;5.848;2023-02-11T00:51:36;27.42;;;8.80;;
42018;SDS011;27703;51.980;5.848;2023-02-11T00:54:02;15.18;;;8.57;;
42018;SDS011;27703;51.980;5.848;2023-02-11T00:56:28;24.15;;;8.60;;
42018;SDS011;27703;51.980;5.848;2023-02-11T00:58:53;22.35;;;8.20;;
42018;SDS011;27703;51.980;5.848;2023-02-11T01:01:19;22.45;;;8.20;;
42018;SDS011;27703;51.980;5.848;2023-02-11T01:03:44;21.02;;;7.82;;
42018;SDS011;27703;51.980;5.848;2023-02-11T01:06:10;18.70;;;6.90;;
42018;SDS011;27703;51.980;5.848;2023-02-11T01:08:36;27.83;;;7.88;;
42018;SDS011;27703;51.980;5.848;2023-02-11T01:11:04;24.30;;;7.80;;
42018;SDS011;27703;51.980;5.848;2023-02-11T01:13:32;19.38;;;7.32;;
42018;SDS011;27703;51.980;5.848;2023-02-11T01:16:01;19.42;;;6.70;;
42018;SDS011;27703;51.980;5.848;2023-02-11T01:18:27;31.65;;;10.43;;
42018;SDS011;27703;51.980;5.848;2023-02-11T01:20:53;23.63;;;8.00;;
42018;SDS011;27703;51.980;5.848;2023-02-11T01:23:19;20.08;;;7.78;;
42018;SDS011;27703;51.980;5.848;2023-02-11T01:25:44;16.00;;;6.30;;
42018;SDS011;27703;51.980;5.848;2023-02-11T01:28:17;13.52;;;5.45;;
42018;SDS011;27703;51.980;5.848;2023-02-11T01:30:44;16.45;;;6.78;;
42018;SDS011;27703;51.980;5.848;2023-02-11T01:33:10;22.50;;;7.05;;
42018;SDS011;27703;51.980;5.848;2023-02-11T01:35:39;17.88;;;5.82;;
42018;SDS011;27703;51.980;5.848;2023-02-11T01:38:05;22.17;;;7.40;;
42018;SDS011;27703;51.980;5.848;2023-02-11T01:40:32;12.23;;;5.10;;
42018;SDS011;27703;51.980;5.848;2023-02-11T01:42:57;15.77;;;6.22;;
42018;SDS011;27703;51.980;5.848;2023-02-11T01:48:12;24.05;;;6.50;;
42018;SDS011;27703;51.980;5.848;2023-02-11T01:51:00;22.95;;;7.22;;
42018;SDS011;27703;51.980;5.848;2023-02-11T01:53:29;21.05;;;7.65;;
42018;SDS011;27703;51.980;5.848;2023-02-11T01:56:16;17.67;;;6.57;;
42018;SDS011;27703;51.980;5.848;2023-02-11T01:59:03;19.98;;;7.47;;
42018;SDS011;27703;51.980;5.848;2023-02-11T02:01:32;26.92;;;8.10;;
42018;SDS011;27703;51.980;5.848;2023-02-11T02:03:59;23.30;;;8.55;;
42018;SDS011;27703;51.980;5.848;2023-02-11T02:06:48;22.10;;;7.43;;
42018;SDS011;27703;51.980;5.848;2023-02-11T02:09:21;20.77;;;7.65;;
42018;SDS011;27703;51.980;5.848;2023-02-11T02:11:50;17.35;;;6.43;;
42018;SDS011;27703;51.980;5.848;2023-02-11T02:14:16;23.45;;;6.82;;
42018;SDS011;27703;51.980;5.848;2023-02-11T02:16:42;19.38;;;7.13;;
42018;SDS011;27703;51.980;5.848;2023-02-11T02:21:56;22.48;;;8.55;;
42018;SDS011;27703;51.980;5.848;2023-02-11T02:36:01;25.42;;;7.55;;
42018;SDS011;27703;51.980;5.848;2023-02-11T02:41:29;24.90;;;7.50;;
42018;SDS011;27703;51.980;5.848;2023-02-11T02:43:57;23.30;;;7.53;;
42018;SDS011;27703;51.980;5.848;2023-02-11T02:46:25;27.52;;;7.82;;
42018;SDS011;27703;51.980;5.848;2023-02-11T02:48:51;29.10;;;7.60;;
42018;SDS011;27703;51.980;5.848;2023-02-11T02:53:53;17.67;;;6.75;;
42018;SDS011;27703;51.980;5.848;2023-02-11T02:56:25;17.15;;;6.85;;
42018;SDS011;27703;51.980;5.848;2023-02-11T02:59:12;19.52;;;7.47;;
42018;SDS011;27703;51.980;5.848;2023-02-11T03:02:13;30.70;;;8.05;;
42018;SDS011;27703;51.980;5.848;2023-02-11T03:07:43;27.05;;;7.78;;
42018;SDS011;27703;51.980;5.848;2023-02-11T03:10:30;23.70;;;7.68;;
42018;SDS011;27703;51.980;5.848;2023-02-11T03:13:00;26.52;;;8.55;;
42018;SDS011;27703;51.980;5.848;2023-02-11T03:15:28;27.00;;;8.68;;
42018;SDS011;27703;51.980;5.848;2023-02-11T03:17:58;26.00;;;8.10;;
42018;SDS011;27703;51.980;5.848;2023-02-11T03:20:26;25.63;;;8.38;;
42018;SDS011;27703;51.980;5.848;2023-02-11T03:22:59;22.00;;;7.60;;
42018;SDS011;27703;51.980;5.848;2023-02-11T03:25:40;25.23;;;8.63;;
42018;SDS011;27703;51.980;5.848;2023-02-11T03:28:28;19.45;;;9.30;;
42018;SDS011;27703;51.980;5.848;2023-02-11T03:31:16;21.98;;;8.32;;
42018;SDS011;27703;51.980;5.848;2023-02-11T03:33:56;16.80;;;8.57;;
42018;SDS011;27703;51.980;5.848;2023-02-11T03:39:09;23.83;;;9.05;;
42018;SDS011;27703;51.980;5.848;2023-02-11T03:41:38;26.85;;;10.52;;
42018;SDS011;27703;51.980;5.848;2023-02-11T03:44:06;26.55;;;9.75;;
42018;SDS011;27703;51.980;5.848;2023-02-11T03:46:33;29.05;;;10.00;;
42018;SDS011;27703;51.980;5.848;2023-02-11T03:49:03;20.27;;;9.48;;
42018;SDS011;27703;51.980;5.848;2023-02-11T03:51:33;31.90;;;10.02;;
42018;SDS011;27703;51.980;5.848;2023-02-11T03:54:00;28.77;;;10.23;;
42018;SDS011;27703;51.980;5.848;2023-02-11T03:56:31;30.55;;;10.65;;
42018;SDS011;27703;51.980;5.848;2023-02-11T03:59:00;25.70;;;10.00;;
42018;SDS011;27703;51.980;5.848;2023-02-11T04:01:26;33.50;;;12.10;;
42018;SDS011;27703;51.980;5.848;2023-02-11T04:03:51;26.35;;;11.02;;
42018;SDS011;27703;51.980;5.848;2023-02-11T04:06:17;25.23;;;10.73;;
42018;SDS011;27703;51.980;5.848;2023-02-11T04:08:42;26.92;;;10.50;;
42018;SDS011;27703;51.980;5.848;2023-02-11T04:11:08;26.92;;;10.90;;
42018;SDS011;27703;51.980;5.848;2023-02-11T04:13:33;30.10;;;10.43;;
42018;SDS011;27703;51.980;5.848;2023-02-11T04:15:59;21.35;;;9.15;;
42018;SDS011;27703;51.980;5.848;2023-02-11T04:18:24;25.45;;;10.55;;
42018;SDS011;27703;51.980;5.848;2023-02-11T04:20:50;24.20;;;11.57;;
42018;SDS011;27703;51.980;5.848;2023-02-11T04:23:15;24.17;;;11.32;;
42018;SDS011;27703;51.980;5.848;2023-02-11T04:25:41;26.88;;;11.10;;
42018;SDS011;27703;51.980;5.848;2023-02-11T04:28:07;30.35;;;12.15;;
42018;SDS011;27703;51.980;5.848;2023-02-11T04:30:32;29.13;;;12.43;;
42018;SDS011;27703;51.980;5.848;2023-02-11T04:32:58;30.98;;;11.32;;
42018;SDS011;27703;51.980;5.848;2023-02-11T04:35:23;26.58;;;11.05;;
42018;SDS011;27703;51.980;5.848;2023-02-11T04:37:49;39.45;;;13.07;;
42018;SDS011;27703;51.980;5.848;2023-02-11T04:40:14;21.40;;;11.48;;
42018;SDS011;27703;51.980;5.848;2023-02-11T04:42:40;40.45;;;12.80;;
42018;SDS011;27703;51.980;5.848;2023-02-11T04:45:06;28.88;;;13.20;;
42018;SDS011;27703;51.980;5.848;2023-02-11T04:47:32;25.17;;;12.35;;
42018;SDS011;27703;51.980;5.848;2023-02-11T04:49:58;30.02;;;12.82;;
42018;SDS011;27703;51.980;5.848;2023-02-11T04:52:23;21.17;;;10.45;;
42018;SDS011;27703;51.980;5.848;2023-02-11T04:54:49;33.13;;;12.52;;
42018;SDS011;27703;51.980;5.848;2023-02-11T04:57:14;31.95;;;13.10;;
42018;SDS011;27703;51.980;5.848;2023-02-11T04:59:40;33.45;;;14.52;;
42018;SDS011;27703;51.980;5.848;2023-02-11T05:02:05;40.75;;;17.63;;
42018;SDS011;27703;51.980;5.848;2023-02-11T05:04:31;35.08;;;15.68;;
42018;SDS011;27703;51.980;5.848;2023-02-11T05:06:56;24.38;;;12.60;;
42018;SDS011;27703;51.980;5.848;2023-02-11T05:09:22;25.88;;;13.60;;
42018;SDS011;27703;51.980;5.848;2023-02-11T05:11:47;35.58;;;12.98;;
42018;SDS011;27703;51.980;5.848;2023-02-11T05:14:13;32.13;;;14.13;;
42018;SDS011;27703;51.980;5.848;2023-02-11T05:16:39;40.75;;;17.15;;
42018;SDS011;27703;51.980;5.848;2023-02-11T05:19:04;33.25;;;14.93;;
42018;SDS011;27703;51.980;5.848;2023-02-11T05:21:30;32.35;;;14.75;;
42018;SDS011;27703;51.980;5.848;2023-02-11T05:23:55;42.05;;;15.35;;
42018;SDS011;27703;51.980;5.848;2023-02-11T05:26:21;37.63;;;14.80;;
42018;SDS011;27703;51.980;5.848;2023-02-11T05:28:47;27.48;;;15.35;;
42018;SDS011;27703;51.980;5.848;2023-02-11T05:31:12;36.30;;;14.48;;
42018;SDS011;27703;51.980;5.848;2023-02-11T05:33:38;28.38;;;13.50;;
42018;SDS011;27703;51.980;5.848;2023-02-11T05:36:06;45.05;;;16.63;;
42018;SDS011;27703;51.980;5.848;2023-02-11T05:38:34;31.33;;;14.63;;
42018;SDS011;27703;51.980;5.848;2023-02-11T05:41:00;24.80;;;13.57;;
42018;SDS011;27703;51.980;5.848;2023-02-11T05:43:25;30.27;;;14.70;;
42018;SDS011;27703;51.980;5.848;2023-02-11T05:45:51;31.27;;;15.43;;
42018;SDS011;27703;51.980;5.848;2023-02-11T05:48:17;35.28;;;16.83;;
42018;SDS011;27703;51.980;5.848;2023-02-11T05:50:42;30.80;;;16.13;;
42018;SDS011;27703;51.980;5.848;2023-02-11T05:53:08;38.10;;;17.60;;
42018;SDS011;27703;51.980;5.848;2023-02-11T05:55:34;46.63;;;18.67;;
42018;SDS011;27703;51.980;5.848;2023-02-11T05:58:00;37.33;;;17.75;;
42018;SDS011;27703;51.980;5.848;2023-02-11T06:00:25;35.97;;;16.20;;
42018;SDS011;27703;51.980;5.848;2023-02-11T06:02:51;40.25;;;17.80;;
42018;SDS011;27703;51.980;5.848;2023-02-11T06:05:17;35.58;;;17.20;;
42018;SDS011;27703;51.980;5.848;2023-02-11T06:07:43;37.38;;;16.83;;
42018;SDS011;27703;51.980;5.848;2023-02-11T06:10:08;38.92;;;16.90;;
42018;SDS011;27703;51.980;5.848;2023-02-11T06:12:35;35.47;;;16.35;;
42018;SDS011;27703;51.980;5.848;2023-02-11T06:15:01;44.30;;;21.85;;
42018;SDS011;27703;51.980;5.848;2023-02-11T06:17:26;41.17;;;18.77;;
42018;SDS011;27703;51.980;5.848;2023-02-11T06:19:56;45.97;;;23.33;;
42018;SDS011;27703;51.980;5.848;2023-02-11T06:22:22;46.10;;;20.13;;
42018;SDS011;27703;51.980;5.848;2023-02-11T06:24:47;35.92;;;19.75;;
42018;SDS011;27703;51.980;5.848;2023-02-11T06:27:13;35.88;;;18.52;;
42018;SDS011;27703;51.980;5.848;2023-02-11T06:29:38;41.88;;;18.02;;
42018;SDS011;27703;51.980;5.848;2023-02-11T06:32:04;37.70;;;18.25;;
42018;SDS011;27703;51.980;5.848;2023-02-11T06:34:30;36.85;;;18.23;;
42018;SDS011;27703;51.980;5.848;2023-02-11T06:36:55;42.38;;;19.58;;
42018;SDS011;27703;51.980;5.848;2023-02-11T06:39:21;38.45;;;17.92;;
42018;SDS011;27703;51.980;5.848;2023-02-11T06:41:46;46.58;;;20.80;;
42018;SDS011;27703;51.980;5.848;2023-02-11T06:44:12;50.63;;;22.02;;
42018;SDS011;27703;51.980;5.848;2023-02-11T06:46:37;39.65;;;19.73;;
42018;SDS011;27703;51.980;5.848;2023-02-11T06:49:03;36.67;;;20.35;;
42018;SDS011;27703;51.980;5.848;2023-02-11T06:51:28;35.85;;;20.00;;
42018;SDS011;27703;51.980;5.848;2023-02-11T06:53:54;42.20;;;20.30;;
42018;SDS011;27703;51.980;5.848;2023-02-11T06:56:20;40.50;;;20.98;;
42018;SDS011;27703;51.980;5.848;2023-02-11T06:58:50;45.90;;;22.73;;
42018;SDS011;27703;51.980;5.848;2023-02-11T07:01:19;47.00;;;22.50;;
42018;SDS011;27703;51.980;5.848;2023-02-11T07:03:46;51.05;;;22.75;;
42018;SDS011;27703;51.980;5.848;2023-02-11T07:06:12;43.40;;;20.73;;
42018;SDS011;27703;51.980;5.848;2023-02-11T07:08:39;46.55;;;20.58;;
42018;SDS011;27703;51.980;5.848;2023-02-11T07:11:14;51.30;;;22.17;;
42018;SDS011;27703;51.980;5.848;2023-02-11T07:13:45;47.60;;;23.08;;
42018;SDS011;27703;51.980;5.848;2023-02-11T07:16:12;51.03;;;24.67;;
42018;SDS011;27703;51.980;5.848;2023-02-11T07:18:40;59.03;;;27.65;;
42018;SDS011;27703;51.980;5.848;2023-02-11T07:21:07;54.17;;;26.50;;
42018;SDS011;27703;51.980;5.848;2023-02-11T07:23:34;63.78;;;27.10;;
42018;SDS011;27703;51.980;5.848;2023-02-11T07:26:03;66.55;;;29.45;;
42018;SDS011;27703;51.980;5.848;2023-02-11T07:28:33;58.95;;;27.88;;
42018;SDS011;27703;51.980;5.848;2023-02-11T07:31:04;62.65;;;27.33;;
42018;SDS011;27703;51.980;5.848;2023-02-11T07:33:31;60.90;;;28.13;;
42018;SDS011;27703;51.980;5.848;2023-02-11T07:35:58;58.67;;;26.38;;
42018;SDS011;27703;51.980;5.848;2023-02-11T07:38:24;59.72;;;27.88;;
42018;SDS011;27703;51.980;5.848;2023-02-11T07:40:50;83.90;;;36.20;;
42018;SDS011;27703;51.980;5.848;2023-02-11T07:43:16;61.42;;;30.63;;
42018;SDS011;27703;51.980;5.848;2023-02-11T07:45:41;59.38;;;30.27;;
42018;SDS011;27703;51.980;5.848;2023-02-11T07:48:07;65.00;;;29.55;;
42018;SDS011;27703;51.980;5.848;2023-02-11T07:50:32;64.40;;;26.95;;
42018;SDS011;27703;51.980;5.848;2023-02-11T07:52:58;60.47;;;26.58;;
42018;SDS011;27703;51.980;5.848;2023-02-11T07:55:23;59.63;;;27.02;;
42018;SDS011;27703;51.980;5.848;2023-02-11T07:57:49;63.00;;;28.90;;
42018;SDS011;27703;51.980;5.848;2023-02-11T08:00:15;61.22;;;29.27;;
42018;SDS011;27703;51.980;5.848;2023-02-11T08:02:41;61.45;;;28.30;;
42018;SDS011;27703;51.980;5.848;2023-02-11T08:05:07;57.42;;;27.98;;
42018;SDS011;27703;51.980;5.848;2023-02-11T08:07:32;69.60;;;32.45;;
42018;SDS011;27703;51.980;5.848;2023-02-11T08:09:58;80.90;;;33.78;;
42018;SDS011;27703;51.980;5.848;2023-02-11T08:12:23;70.90;;;33.72;;
42018;SDS011;27703;51.980;5.848;2023-02-11T08:14:49;66.57;;;31.17;;
42018;SDS011;27703;51.980;5.848;2023-02-11T08:17:15;66.35;;;31.38;;
42018;SDS011;27703;51.980;5.848;2023-02-11T08:19:41;70.88;;;33.72;;
42018;SDS011;27703;51.980;5.848;2023-02-11T08:22:06;81.78;;;36.63;;
42018;SDS011;27703;51.980;5.848;2023-02-11T08:24:32;72.80;;;33.20;;
42018;SDS011;27703;51.980;5.848;2023-02-11T08:26:58;70.30;;;34.67;;
42018;SDS011;27703;51.980;5.848;2023-02-11T08:29:23;72.45;;;34.33;;
42018;SDS011;27703;51.980;5.848;2023-02-11T08:31:49;87.57;;;39.05;;
42018;SDS011;27703;51.980;5.848;2023-02-11T08:34:15;95.00;;;38.70;;
42018;SDS011;27703;51.980;5.848;2023-02-11T08:36:43;76.68;;;35.10;;
42018;SDS011;27703;51.980;5.848;2023-02-11T08:39:14;71.47;;;32.35;;
42018;SDS011;27703;51.980;5.848;2023-02-11T08:41:41;83.85;;;35.97;;
42018;SDS011;27703;51.980;5.848;2023-02-11T08:44:06;65.65;;;31.48;;
42018;SDS011;27703;51.980;5.848;2023-02-11T08:46:32;75.55;;;33.45;;
42018;SDS011;27703;51.980;5.848;2023-02-11T08:48:57;66.07;;;34.00;;
42018;SDS011;27703;51.980;5.848;2023-02-11T08:51:24;67.18;;;32.35;;
42018;SDS011;27703;51.980;5.848;2023-02-11T08:53:52;55.72;;;27.58;;
42018;SDS011;27703;51.980;5.848;2023-02-11T08:56:19;73.70;;;35.40;;
42018;SDS011;27703;51.980;5.848;2023-02-11T08:58:45;62.10;;;31.98;;
42018;SDS011;27703;51.980;5.848;2023-02-11T09:03:44;71.22;;;33.90;;
42018;SDS011;27703;51.980;5.848;2023-02-11T09:06:11;73.38;;;32.33;;
42018;SDS011;27703;51.980;5.848;2023-02-11T09:08:38;71.25;;;34.17;;
42018;SDS011;27703;51.980;5.848;2023-02-11T09:11:05;81.88;;;39.25;;
42018;SDS011;27703;51.980;5.848;2023-02-11T09:13:31;75.97;;;35.75;;
42018;SDS011;27703;51.980;5.848;2023-02-11T09:15:58;73.03;;;36.25;;
42018;SDS011;27703;51.980;5.848;2023-02-11T09:18:24;87.85;;;39.45;;
42018;SDS011;27703;51.980;5.848;2023-02-11T09:20:50;72.95;;;36.95;;
42018;SDS011;27703;51.980;5.848;2023-02-11T09:23:15;79.05;;;36.55;;
42018;SDS011;27703;51.980;5.848;2023-02-11T09:25:41;79.30;;;34.50;;
42018;SDS011;27703;51.980;5.848;2023-02-11T09:28:07;80.47;;;36.65;;
42018;SDS011;27703;51.980;5.848;2023-02-11T09:30:35;74.45;;;36.35;;
42018;SDS011;27703;51.980;5.848;2023-02-11T09:33:01;74.68;;;34.78;;
42018;SDS011;27703;51.980;5.848;2023-02-11T09:35:28;71.90;;;33.72;;
42018;SDS011;27703;51.980;5.848;2023-02-11T09:37:54;63.47;;;32.10;;
42018;SDS011;27703;51.980;5.848;2023-02-11T09:40:19;81.68;;;36.13;;
42018;SDS011;27703;51.980;5.848;2023-02-11T09:42:49;75.90;;;36.95;;
42018;SDS011;27703;51.980;5.848;2023-02-11T09:45:24;83.07;;;38.15;;
42018;SDS011;27703;51.980;5.848;2023-02-11T09:47:53;81.60;;;36.88;;
42018;SDS011;27703;51.980;5.848;2023-02-11T09:50:23;79.72;;;35.97;;
42018;SDS011;27703;51.980;5.848;2023-02-11T09:53:03;75.50;;;39.55;;
42018;SDS011;27703;51.980;5.848;2023-02-11T09:55:39;71.95;;;34.63;;
42018;SDS011;27703;51.980;5.848;2023-02-11T09:58:15;76.45;;;35.85;;
42018;SDS011;27703;51.980;5.848;2023-02-11T10:00:52;75.45;;;34.60;;
42018;SDS011;27703;51.980;5.848;2023-02-11T10:09:08;69.90;;;34.35;;
42018;SDS011;27703;51.980;5.848;2023-02-11T10:19:56;72.47;;;36.30;;
42018;SDS011;27703;51.980;5.848;2023-02-11T10:22:27;67.97;;;34.20;;
42018;SDS011;27703;51.980;5.848;2023-02-11T10:27:28;70.95;;;35.30;;
42018;SDS011;27703;51.980;5.848;2023-02-11T10:29:59;72.38;;;35.55;;
42018;SDS011;27703;51.980;5.848;2023-02-11T10:35:12;71.65;;;36.22;;
42018;SDS011;27703;51.980;5.848;2023-02-11T10:37:39;63.45;;;34.97;;
42018;SDS011;27703;51.980;5.848;2023-02-11T10:40:10;67.13;;;36.33;;
42018;SDS011;27703;51.980;5.848;2023-02-11T10:42:41;69.30;;;37.50;;
42018;SDS011;27703;51.980;5.848;2023-02-11T10:45:15;63.22;;;35.75;;
42018;SDS011;27703;51.980;5.848;2023-02-11T10:47:48;69.93;;;36.03;;
42018;SDS011;27703;51.980;5.848;2023-02-11T10:50:25;67.20;;;34.28;;
42018;SDS011;27703;51.980;5.848;2023-02-11T10:55:50;61.28;;;33.42;;
42018;SDS011;27703;51.980;5.848;2023-02-11T11:01:08;68.18;;;35.05;;
42018;SDS011;27703;51.980;5.848;2023-02-11T11:03:35;55.33;;;32.78;;
42018;SDS011;27703;51.980;5.848;2023-02-11T11:06:13;59.85;;;33.33;;
42018;SDS011;27703;51.980;5.848;2023-02-11T11:08:47;68.28;;;36.80;;
42018;SDS011;27703;51.980;5.848;2023-02-11T11:11:21;59.03;;;33.90;;
42018;SDS011;27703;51.980;5.848;2023-02-11T11:16:24;53.75;;;30.33;;
42018;SDS011;27703;51.980;5.848;2023-02-11T11:24:04;48.92;;;29.55;;
42018;SDS011;27703;51.980;5.848;2023-02-11T11:26:42;51.00;;;28.58;;
42018;SDS011;27703;51.980;5.848;2023-02-11T11:29:12;51.83;;;28.27;;
42018;SDS011;27703;51.980;5.848;2023-02-11T11:31:45;44.88;;;27.67;;
42018;SDS011;27703;51.980;5.848;2023-02-11T11:34:20;50.80;;;29.85;;
42018;SDS011;27703;51.980;5.848;2023-02-11T11:36:50;47.50;;;27.67;;
42018;SDS011;27703;51.980;5.848;2023-02-11T11:41:53;41.88;;;25.15;;
42018;SDS011;27703;51.980;5.848;2023-02-11T11:44:26;43.65;;;25.52;;
42018;SDS011;27703;51.980;5.848;2023-02-11T11:47:04;38.90;;;23.40;;
42018;SDS011;27703;51.980;5.848;2023-02-11T11:52:25;29.13;;;19.60;;
42018;SDS011;27703;51.980;5.848;2023-02-11T11:55:16;34.45;;;21.58;;
42018;SDS011;27703;51.980;5.848;2023-02-11T11:57:54;34.10;;;19.85;;
42018;SDS011;27703;51.980;5.848;2023-02-11T12:00:22;31.08;;;20.40;;
42018;SDS011;27703;51.980;5.848;2023-02-11T12:06:03;33.20;;;19.45;;
42018;SDS011;27703;51.980;5.848;2023-02-11T12:17:02;27.23;;;16.00;;
42018;SDS011;27703;51.980;5.848;2023-02-11T12:23:06;24.55;;;15.93;;
42018;SDS011;27703;51.980;5.848;2023-02-11T12:25:50;25.38;;;15.20;;
42018;SDS011;27703;51.980;5.848;2023-02-11T12:31:22;24.30;;;15.05;;
42018;SDS011;27703;51.980;5.848;2023-02-11T12:45:02;25.02;;;15.82;;
42018;SDS011;27703;51.980;5.848;2023-02-11T12:53:00;17.88;;;11.80;;
42018;SDS011;27703;51.980;5.848;2023-02-11T12:55:43;20.65;;;12.55;;
42018;SDS011;27703;51.980;5.848;2023-02-11T12:58:17;22.73;;;12.90;;
42018;SDS011;27703;51.980;5.848;2023-02-11T13:00:50;21.75;;;11.63;;
42018;SDS011;27703;51.980;5.848;2023-02-11T13:03:30;21.50;;;12.40;;
42018;SDS011;27703;51.980;5.848;2023-02-11T13:06:07;18.88;;;11.85;;
42018;SDS011;27703;51.980;5.848;2023-02-11T13:08:50;17.30;;;12.65;;
42018;SDS011;27703;51.980;5.848;2023-02-11T13:11:23;15.45;;;11.98;;
42018;SDS011;27703;51.980;5.848;2023-02-11T13:14:07;15.27;;;11.18;;
42018;SDS011;27703;51.980;5.848;2023-02-11T13:16:41;21.23;;;10.60;;
42018;SDS011;27703;51.980;5.848;2023-02-11T13:21:42;14.57;;;9.90;;
42018;SDS011;27703;51.980;5.848;2023-02-11T13:33:00;16.63;;;10.80;;
42018;SDS011;27703;51.980;5.848;2023-02-11T13:35:38;14.88;;;10.10;;
42018;SDS011;27703;51.980;5.848;2023-02-11T13:38:27;14.88;;;10.55;;
42018;SDS011;27703;51.980;5.848;2023-02-11T13:41:36;19.15;;;10.90;;
42018;SDS011;27703;51.980;5.848;2023-02-11T13:44:02;14.00;;;9.15;;
42018;SDS011;27703;51.980;5.848;2023-02-11T13:46:46;14.00;;;9.38;;
42018;SDS011;27703;51.980;5.848;2023-02-11T13:49:17;21.15;;;12.43;;
42018;SDS011;27703;51.980;5.848;2023-02-11T13:51:46;16.25;;;11.38;;
42018;SDS011;27703;51.980;5.848;2023-02-11T13:54:27;18.73;;;11.98;;
42018;SDS011;27703;51.980;5.848;2023-02-11T13:57:18;31.02;;;13.15;;
42018;SDS011;27703;51.980;5.848;2023-02-11T13:59:54;19.08;;;11.95;;
42018;SDS011;27703;51.980;5.848;2023-02-11T14:13:36;22.98;;;13.80;;
42018;SDS011;27703;51.980;5.848;2023-02-11T14:16:20;15.10;;;11.23;;
42018;SDS011;27703;51.980;5.848;2023-02-11T14:34:54;14.98;;;10.55;;
42018;SDS011;27703;51.980;5.848;2023-02-11T14:40:27;11.60;;;9.20;;
42018;SDS011;27703;51.980;5.848;2023-02-11T14:43:46;13.75;;;9.85;;
42018;SDS011;27703;51.980;5.848;2023-02-11T14:45:55;24.52;;;12.93;;
42018;SDS011;27703;51.980;5.848;2023-02-11T14:48:26;19.05;;;12.70;;
42018;SDS011;27703;51.980;5.848;2023-02-11T14:51:06;17.75;;;12.43;;
42018;SDS011;27703;51.980;5.848;2023-02-11T14:53:53;22.05;;;13.60;;
42018;SDS011;27703;51.980;5.848;2023-02-11T14:56:24;24.07;;;12.53;;
42018;SDS011;27703;51.980;5.848;2023-02-11T14:58:55;18.25;;;12.73;;
42018;SDS011;27703;51.980;5.848;2023-02-11T15:06:35;18.35;;;11.48;;
42018;SDS011;27703;51.980;5.848;2023-02-11T15:09:04;14.20;;;9.88;;
42018;SDS011;27703;51.980;5.848;2023-02-11T15:11:38;13.05;;;9.80;;
42018;SDS011;27703;51.980;5.848;2023-02-11T15:14:10;13.70;;;10.80;;
42018;SDS011;27703;51.980;5.848;2023-02-11T15:16:43;19.75;;;11.00;;
42018;SDS011;27703;51.980;5.848;2023-02-11T15:19:16;17.40;;;11.10;;
42018;SDS011;27703;51.980;5.848;2023-02-11T15:21:46;15.30;;;9.38;;
42018;SDS011;27703;51.980;5.848;2023-02-11T15:26:57;11.25;;;7.78;;
42018;SDS011;27703;51.980;5.848;2023-02-11T15:29:26;17.70;;;9.52;;
42018;SDS011;27703;51.980;5.848;2023-02-11T15:32:06;13.88;;;10.07;;
42018;SDS011;27703;51.980;5.848;2023-02-11T15:34:39;14.18;;;9.40;;
42018;SDS011;27703;51.980;5.848;2023-02-11T15:37:05;14.32;;;9.65;;
42018;SDS011;27703;51.980;5.848;2023-02-11T15:39:38;10.15;;;9.00;;
42018;SDS011;27703;51.980;5.848;2023-02-11T15:42:18;12.85;;;9.75;;
42018;SDS011;27703;51.980;5.848;2023-02-11T15:44:44;14.50;;;9.75;;
42018;SDS011;27703;51.980;5.848;2023-02-11T15:47:11;12.15;;;8.85;;
42018;SDS011;27703;51.980;5.848;2023-02-11T15:49:43;12.50;;;9.43;;
42018;SDS011;27703;51.980;5.848;2023-02-11T15:52:10;12.02;;;9.80;;
42018;SDS011;27703;51.980;5.848;2023-02-11T15:54:38;12.18;;;8.65;;
42018;SDS011;27703;51.980;5.848;2023-02-11T15:57:05;14.13;;;9.77;;
42018;SDS011;27703;51.980;5.848;2023-02-11T15:59:34;13.43;;;8.68;;
42018;SDS011;27703;51.980;5.848;2023-02-11T16:02:15;11.63;;;8.15;;
42018;SDS011;27703;51.980;5.848;2023-02-11T16:04:47;10.32;;;7.55;;
42018;SDS011;27703;51.980;5.848;2023-02-11T16:07:37;12.30;;;7.13;;
42018;SDS011;27703;51.980;5.848;2023-02-11T16:10:30;11.77;;;7.72;;
42018;SDS011;27703;51.980;5.848;2023-02-11T16:17:59;9.52;;;7.05;;
42018;SDS011;27703;51.980;5.848;2023-02-11T16:20:26;10.93;;;6.65;;
42018;SDS011;27703;51.980;5.848;2023-02-11T16:22:52;9.25;;;5.65;;
42018;SDS011;27703;51.980;5.848;2023-02-11T16:25:20;8.02;;;5.65;;
42018;SDS011;27703;51.980;5.848;2023-02-11T16:27:47;8.85;;;6.63;;
42018;SDS011;27703;51.980;5.848;2023-02-11T16:30:26;14.55;;;7.53;;
42018;SDS011;27703;51.980;5.848;2023-02-11T16:32:53;8.70;;;5.43;;
42018;SDS011;27703;51.980;5.848;2023-02-11T16:35:18;10.27;;;6.25;;
42018;SDS011;27703;51.980;5.848;2023-02-11T16:37:44;9.05;;;6.70;;
42018;SDS011;27703;51.980;5.848;2023-02-11T16:40:10;10.65;;;6.60;;
42018;SDS011;27703;51.980;5.848;2023-02-11T16:42:36;10.63;;;5.65;;
42018;SDS011;27703;51.980;5.848;2023-02-11T16:45:02;7.78;;;5.57;;
42018;SDS011;27703;51.980;5.848;2023-02-11T16:47:28;9.43;;;6.90;;
42018;SDS011;27703;51.980;5.848;2023-02-11T16:49:55;8.93;;;5.70;;
42018;SDS011;27703;51.980;5.848;2023-02-11T16:52:22;6.68;;;4.28;;
42018;SDS011;27703;51.980;5.848;2023-02-11T16:54:49;9.68;;;4.20;;
42018;SDS011;27703;51.980;5.848;2023-02-11T16:57:16;7.35;;;4.55;;
42018;SDS011;27703;51.980;5.848;2023-02-11T16:59:46;8.27;;;4.75;;
42018;SDS011;27703;51.980;5.848;2023-02-11T17:02:14;10.75;;;5.35;;
42018;SDS011;27703;51.980;5.848;2023-02-11T17:04:48;8.32;;;4.38;;
42018;SDS011;27703;51.980;5.848;2023-02-11T17:07:14;10.52;;;6.45;;
42018;SDS011;27703;51.980;5.848;2023-02-11T17:09:41;11.32;;;5.88;;
42018;SDS011;27703;51.980;5.848;2023-02-11T17:12:06;9.82;;;5.72;;
42018;SDS011;27703;51.980;5.848;2023-02-11T17:14:32;7.80;;;5.25;;
42018;SDS011;27703;51.980;5.848;2023-02-11T17:16:57;5.38;;;4.63;;